createdAt,value
2023-01-20T00:01:46.769Z,3.26
2023-01-20T00:04:15.325Z,3.36
2023-01-20T00:06:42.501Z,3.36
2023-01-20T00:09:15.111Z,3.38
2023-01-20T00:11:44.817Z,3.33
2023-01-20T00:14:16.937Z,3.26
2023-01-20T00:16:44.358Z,3.20
2023-01-20T00:19:15.029Z,3.33
2023-01-20T00:21:42.969Z,3.23
2023-01-20T00:24:12.195Z,3.02
2023-01-20T00:26:39.452Z,3.19
2023-01-20T00:29:06.633Z,3.15
2023-01-20T00:31:34.695Z,2.96
2023-01-20T00:34:02.719Z,3.00
2023-01-20T00:36:31.649Z,3.12
2023-01-20T00:38:59.178Z,3.13
2023-01-20T00:41:26.467Z,2.96
2023-01-20T00:43:53.743Z,3.15
2023-01-20T00:46:23.605Z,3.15
2023-01-20T00:48:50.877Z,3.09
2023-01-20T00:51:18.077Z,2.99
2023-01-20T00:53:47.507Z,3.13
2023-01-20T00:56:19.492Z,3.19
2023-01-20T00:58:48.909Z,3.12
2023-01-20T01:01:18.176Z,3.09
2023-01-20T01:03:45.524Z,3.13
2023-01-20T01:06:17.618Z,3.07
2023-01-20T01:08:45.434Z,2.96
2023-01-20T01:11:19.643Z,2.89
2023-01-20T01:13:49.037Z,2.95
2023-01-20T01:16:16.635Z,2.88
2023-01-20T01:18:46.886Z,2.92
2023-01-20T01:21:16.765Z,2.79
2023-01-20T01:23:44.075Z,2.72
2023-01-20T01:26:13.883Z,2.69
2023-01-20T01:28:43.415Z,2.58
2023-01-20T01:31:10.822Z,2.42
2023-01-20T01:33:40.466Z,2.48
2023-01-20T01:36:12.238Z,2.72
2023-01-20T01:38:39.639Z,2.48
2023-01-20T01:41:11.314Z,2.62
2023-01-20T01:43:41.492Z,2.31
2023-01-20T01:46:10.963Z,2.33
2023-01-20T01:48:42.581Z,2.57
2023-01-20T01:51:15.042Z,2.40
2023-01-20T01:53:46.620Z,2.37
2023-01-20T01:56:15.918Z,2.61
2023-01-20T01:58:48.474Z,2.36
2023-01-20T02:01:16.076Z,2.37
2023-01-20T02:04:04.378Z,2.59
2023-01-20T02:06:33.812Z,2.75
2023-01-20T02:09:03.659Z,2.68
2023-01-20T02:11:35.310Z,2.50
2023-01-20T02:14:02.758Z,2.55
2023-01-20T02:16:48.141Z,2.55
2023-01-20T02:19:59.853Z,2.26
2023-01-20T02:22:51.092Z,2.51
2023-01-20T02:25:42.867Z,2.62
2023-01-20T02:28:21.794Z,2.81
2023-01-20T02:30:57.670Z,2.29
2023-01-20T02:33:29.789Z,2.42
2023-01-20T02:36:06.877Z,2.45
2023-01-20T02:38:56.352Z,2.33
2023-01-20T02:41:26.960Z,2.61
2023-01-20T02:44:21.271Z,2.59
2023-01-20T02:46:57.755Z,2.50
2023-01-20T02:49:32.454Z,2.31
2023-01-20T02:52:09.301Z,2.20
2023-01-20T02:54:44.707Z,2.36
2023-01-20T02:57:15.838Z,2.19
2023-01-20T02:59:48.026Z,2.24
2023-01-20T03:02:23.159Z,2.30
2023-01-20T03:04:57.206Z,2.10
2023-01-20T03:07:31.404Z,2.24
2023-01-20T03:10:02.712Z,2.09
2023-01-20T03:12:42.305Z,2.33
2023-01-20T03:15:13.866Z,2.19
2023-01-20T03:17:41.300Z,2.42
2023-01-20T03:20:09.165Z,2.40
2023-01-20T03:22:36.764Z,2.13
2023-01-20T03:25:04.849Z,2.26
2023-01-20T03:27:32.257Z,2.19
2023-01-20T03:30:01.949Z,2.24
2023-01-20T03:32:32.231Z,2.14
2023-01-20T03:34:59.741Z,2.13
2023-01-20T03:37:27.033Z,2.31
2023-01-20T03:39:57.966Z,2.36
2023-01-20T03:42:31.756Z,2.06
2023-01-20T03:45:17.125Z,2.11
2023-01-20T03:48:31.301Z,2.41
2023-01-20T03:51:08.632Z,2.36
2023-01-20T03:53:45.583Z,2.06
2023-01-20T03:56:30.126Z,2.16
2023-01-20T03:59:00.237Z,2.16
2023-01-20T04:01:33.505Z,2.05
2023-01-20T04:04:03.160Z,2.27
2023-01-20T04:06:37.262Z,2.36
2023-01-20T04:09:08.155Z,2.31
2023-01-20T04:11:35.495Z,2.16
2023-01-20T04:14:05.018Z,2.13
2023-01-20T04:16:34.582Z,2.09
2023-01-20T04:19:04.374Z,2.23
2023-01-20T04:21:38.358Z,2.10
2023-01-20T04:24:16.683Z,2.26
2023-01-20T04:26:43.980Z,2.23
2023-01-20T04:29:13.117Z,2.50
2023-01-20T04:31:42.697Z,2.45
2023-01-20T04:34:13.580Z,2.36
2023-01-20T04:36:40.997Z,2.30
2023-01-20T04:39:08.341Z,2.40
2023-01-20T04:41:35.585Z,2.51
2023-01-20T04:44:02.698Z,2.52
2023-01-20T04:46:29.921Z,2.50
2023-01-20T04:48:57.077Z,2.36
2023-01-20T04:51:24.251Z,2.64
2023-01-20T04:53:51.362Z,2.42
2023-01-20T04:56:18.505Z,2.36
2023-01-20T04:58:50.265Z,2.30
2023-01-20T05:01:17.567Z,2.34
2023-01-20T05:03:49.376Z,2.40
2023-01-20T05:06:19.089Z,2.26
2023-01-20T05:08:46.186Z,2.16
2023-01-20T05:11:13.475Z,2.31
2023-01-20T05:14:08.440Z,2.20
2023-01-20T05:16:37.950Z,2.42
2023-01-20T05:19:05.148Z,2.65
2023-01-20T05:21:33.223Z,2.64
2023-01-20T05:24:00.343Z,2.69
2023-01-20T05:26:32.879Z,2.57
2023-01-20T05:29:00.113Z,2.66
2023-01-20T05:31:27.347Z,2.38
2023-01-20T05:33:54.570Z,2.61
2023-01-20T05:36:21.717Z,2.62
2023-01-20T05:39:13.703Z,2.61
2023-01-20T05:41:40.863Z,2.50
2023-01-20T05:44:10.490Z,2.64
2023-01-20T05:46:42.631Z,2.59
2023-01-20T05:49:14.994Z,2.41
2023-01-20T05:51:44.457Z,2.31
2023-01-20T05:54:11.592Z,2.29
2023-01-20T05:56:38.758Z,2.55
2023-01-20T05:59:10.685Z,2.57
2023-01-20T06:01:37.921Z,2.54
2023-01-20T06:04:05.152Z,2.57
2023-01-20T06:06:34.650Z,2.65
2023-01-20T06:09:06.702Z,2.51
2023-01-20T06:11:33.962Z,2.64
2023-01-20T06:14:01.123Z,2.61
2023-01-20T06:16:29.884Z,2.69
2023-01-20T06:18:57.754Z,2.71
2023-01-20T06:21:27.400Z,2.69
2023-01-20T06:23:54.530Z,2.45
2023-01-20T06:26:21.697Z,2.41
2023-01-20T06:28:51.217Z,2.75
2023-01-20T06:31:20.923Z,2.78
2023-01-20T06:33:50.429Z,2.69
2023-01-20T06:36:17.771Z,2.79
2023-01-20T06:38:50.633Z,2.71
2023-01-20T06:41:20.074Z,2.48
2023-01-20T06:43:47.915Z,2.69
2023-01-20T06:46:18.477Z,2.45
2023-01-20T06:48:45.917Z,2.38
2023-01-20T06:51:17.023Z,2.58
2023-01-20T06:53:44.773Z,2.55
2023-01-20T06:56:13.755Z,2.64
2023-01-20T06:58:41.876Z,2.68
2023-01-20T07:01:16.264Z,2.50
2023-01-20T07:03:46.051Z,2.48
2023-01-20T07:06:33.181Z,2.48
2023-01-20T07:09:01.564Z,2.65
2023-01-20T07:11:31.568Z,2.42
2023-01-20T07:13:58.807Z,2.40
2023-01-20T07:16:26.007Z,2.41
2023-01-20T07:18:55.560Z,2.40
2023-01-20T07:21:26.276Z,2.47
2023-01-20T07:23:59.579Z,2.52
2023-01-20T07:26:26.851Z,2.48
2023-01-20T07:28:54.089Z,2.55
2023-01-20T07:31:24.257Z,2.55
2023-01-20T07:33:54.180Z,2.68
2023-01-20T07:36:21.396Z,2.50
2023-01-20T07:38:52.605Z,2.45
2023-01-20T07:41:20.649Z,2.71
2023-01-20T07:43:52.126Z,2.36
2023-01-20T07:46:22.786Z,2.41
2023-01-20T07:48:50.111Z,2.36
2023-01-20T07:51:17.382Z,2.45
2023-01-20T07:53:47.172Z,2.66
2023-01-20T07:56:16.998Z,2.62
2023-01-20T07:58:45.392Z,2.38
2023-01-20T08:01:18.868Z,2.52
2023-01-20T08:03:46.540Z,2.50
2023-01-20T08:06:17.357Z,2.65
2023-01-20T08:08:48.328Z,2.71
2023-01-20T08:11:22.920Z,2.88
2023-01-20T08:13:51.955Z,2.81
2023-01-20T08:16:21.423Z,2.44
2023-01-20T08:18:52.942Z,2.58
2023-01-20T08:21:25.815Z,2.69
2023-01-20T08:23:56.237Z,2.59
2023-01-20T08:26:25.109Z,2.61
2023-01-20T08:28:52.762Z,2.62
2023-01-20T08:31:28.033Z,2.69
2023-01-20T08:33:56.096Z,2.92
2023-01-20T08:36:29.359Z,2.75
2023-01-20T08:39:02.664Z,2.79
2023-01-20T08:41:34.817Z,2.62
2023-01-20T08:44:05.483Z,2.82
2023-01-20T08:46:32.964Z,2.72
2023-01-20T08:49:00.189Z,2.77
2023-01-20T08:51:30.537Z,2.44
2023-01-20T08:53:58.157Z,2.54
2023-01-20T08:56:25.631Z,2.50
2023-01-20T08:58:54.038Z,2.74
2023-01-20T09:01:28.355Z,2.75
2023-01-20T09:04:05.285Z,2.21
2023-01-20T09:06:49.539Z,2.51
2023-01-20T09:09:18.564Z,2.27
2023-01-20T09:11:51.566Z,2.33
2023-01-20T09:14:20.317Z,2.10
2023-01-20T09:16:48.550Z,1.81
2023-01-20T09:19:16.268Z,1.98
2023-01-20T09:21:45.899Z,2.14
2023-01-20T09:24:13.173Z,2.41
2023-01-20T09:26:42.681Z,2.34
2023-01-20T09:29:12.297Z,2.30
2023-01-20T09:31:53.631Z,2.50
2023-01-20T09:34:24.663Z,2.52
2023-01-20T09:36:56.328Z,2.23
2023-01-20T09:39:44.906Z,2.51
2023-01-20T09:42:49.218Z,2.27
2023-01-20T09:45:38.401Z,2.16
2023-01-20T09:48:36.508Z,2.09
2023-01-20T09:51:32.805Z,2.47
2023-01-20T09:54:06.773Z,2.51
2023-01-20T09:56:41.133Z,2.44
2023-01-20T09:59:21.962Z,2.45
2023-01-20T10:01:55.140Z,2.57
2023-01-20T10:04:25.163Z,2.19
2023-01-20T10:06:56.095Z,2.41
2023-01-20T10:09:33.717Z,2.16
2023-01-20T10:12:09.944Z,2.47
2023-01-20T10:14:44.061Z,2.36
2023-01-20T10:17:20.431Z,2.07
2023-01-20T10:19:56.517Z,2.06
2023-01-20T10:22:32.092Z,2.26
2023-01-20T10:25:20.412Z,2.27
2023-01-20T10:28:15.919Z,2.19
2023-01-20T10:30:47.315Z,2.24
2023-01-20T10:33:43.886Z,2.21
2023-01-20T10:36:19.423Z,2.14
2023-01-20T10:39:06.267Z,2.13
2023-01-20T10:42:10.343Z,2.21
2023-01-20T10:44:40.289Z,2.44
2023-01-20T10:47:22.402Z,2.50
2023-01-20T10:50:15.324Z,2.59
2023-01-20T10:52:55.149Z,2.47
2023-01-20T10:55:51.245Z,2.31
2023-01-20T10:58:24.936Z,2.64
2023-01-20T11:00:52.476Z,2.58
2023-01-20T11:03:21.788Z,2.52
2023-01-20T11:05:51.567Z,2.68
2023-01-20T11:08:22.738Z,2.27
2023-01-20T11:10:55.486Z,2.52
2023-01-20T11:13:27.356Z,2.77
2023-01-20T11:15:59.271Z,2.37
2023-01-20T11:18:34.236Z,2.52
2023-01-20T11:21:11.739Z,2.42
2023-01-20T11:23:40.729Z,2.64
2023-01-20T11:26:21.997Z,2.42
2023-01-20T11:28:57.138Z,2.81
2023-01-20T11:31:56.416Z,2.71
2023-01-20T11:34:31.276Z,2.71
2023-01-20T11:37:19.561Z,2.68
2023-01-20T11:39:49.514Z,2.07
2023-01-20T11:42:25.956Z,2.37
2023-01-20T11:44:55.828Z,2.54
2023-01-20T11:47:24.626Z,2.54
2023-01-20T11:50:04.030Z,2.34
2023-01-20T11:52:36.917Z,2.40
2023-01-20T11:55:13.000Z,2.57
2023-01-20T11:57:57.366Z,2.54
2023-01-20T12:00:24.539Z,2.69
2023-01-20T12:03:14.213Z,2.02
2023-01-20T12:06:06.543Z,2.05
2023-01-20T12:08:39.456Z,2.07
2023-01-20T12:11:08.846Z,2.09
2023-01-20T12:14:03.427Z,2.26
2023-01-20T12:16:32.778Z,2.26
2023-01-20T12:19:10.339Z,2.29
2023-01-20T12:21:43.674Z,2.17
2023-01-20T12:24:13.545Z,2.36
2023-01-20T12:26:43.804Z,2.41
2023-01-20T12:29:20.728Z,2.47
2023-01-20T12:31:49.437Z,2.59
2023-01-20T12:34:26.507Z,2.75
2023-01-20T12:37:16.869Z,2.16
2023-01-20T12:40:07.429Z,2.20
2023-01-20T12:43:01.552Z,2.42
2023-01-20T12:45:42.019Z,2.37
2023-01-20T12:48:47.605Z,2.44
2023-01-20T12:51:22.321Z,2.36
2023-01-20T12:54:08.474Z,2.61
2023-01-20T12:56:40.541Z,2.44
2023-01-20T12:59:22.896Z,2.41
2023-01-20T13:02:11.052Z,2.26
2023-01-20T13:04:47.005Z,2.44
2023-01-20T13:07:22.904Z,2.24
2023-01-20T13:10:09.303Z,2.40
2023-01-20T13:12:51.610Z,2.26
2023-01-20T13:15:37.455Z,2.16
2023-01-20T13:18:13.863Z,2.20
2023-01-20T13:20:46.675Z,2.20
2023-01-20T13:23:16.413Z,2.47
2023-01-20T13:25:45.910Z,2.41
2023-01-20T13:28:20.902Z,2.48
2023-01-20T13:30:54.350Z,2.20
2023-01-20T13:33:30.462Z,2.13
2023-01-20T13:36:18.601Z,2.29
2023-01-20T13:38:49.334Z,2.27
2023-01-20T13:41:51.326Z,2.19
2023-01-20T13:44:36.605Z,2.14
2023-01-20T13:47:08.314Z,2.16
2023-01-20T13:49:49.772Z,2.14
2023-01-20T13:52:52.226Z,2.16
2023-01-20T13:55:41.448Z,2.21
2023-01-20T13:58:22.018Z,2.26
2023-01-20T14:00:51.600Z,2.29
2023-01-20T14:03:32.952Z,2.07
2023-01-20T14:06:02.474Z,2.09
2023-01-20T14:08:41.519Z,2.21
2023-01-20T14:11:17.615Z,2.26
2023-01-20T14:13:58.968Z,2.42
2023-01-20T14:16:36.770Z,2.51
2023-01-20T14:19:27.455Z,2.34
2023-01-20T14:21:56.877Z,2.26
2023-01-20T14:24:34.376Z,2.14
2023-01-20T14:27:20.795Z,2.23
2023-01-20T14:29:50.362Z,2.13
2023-01-20T14:32:32.533Z,2.21
2023-01-20T14:35:01.363Z,2.36
2023-01-20T14:37:35.038Z,2.14
2023-01-20T14:40:28.502Z,2.20
2023-01-20T14:43:02.956Z,2.33
2023-01-20T14:45:32.839Z,1.98
2023-01-20T14:48:02.390Z,2.09
2023-01-20T14:50:30.279Z,2.14
2023-01-20T14:52:57.553Z,1.90
2023-01-20T14:55:40.840Z,2.02
2023-01-20T14:58:18.288Z,2.09
2023-01-20T15:00:49.342Z,2.16
2023-01-20T15:03:26.168Z,2.10
2023-01-20T15:06:05.668Z,2.20
2023-01-20T15:08:32.838Z,2.13
2023-01-20T15:11:19.548Z,2.07
2023-01-20T15:13:58.823Z,1.82
2023-01-20T15:16:49.382Z,1.93
2023-01-20T15:19:29.803Z,2.16
2023-01-20T15:22:16.136Z,1.82
2023-01-20T15:24:47.222Z,1.78
2023-01-20T15:27:26.932Z,1.87
2023-01-20T15:30:21.638Z,1.89
2023-01-20T15:32:52.603Z,2.11
2023-01-20T15:35:23.032Z,2.00
2023-01-20T15:37:53.162Z,1.83
2023-01-20T15:40:24.210Z,2.10
2023-01-20T15:42:51.902Z,2.00
2023-01-20T15:45:21.701Z,2.03
2023-01-20T15:47:49.787Z,2.10
2023-01-20T15:50:21.385Z,2.00
2023-01-20T15:52:49.417Z,1.82
2023-01-20T15:55:51.001Z,1.98
2023-01-20T15:58:27.531Z,2.27
2023-01-20T16:00:58.479Z,1.98
2023-01-20T16:03:26.634Z,1.92
2023-01-20T16:05:55.584Z,2.03
2023-01-20T16:08:29.558Z,1.73
2023-01-20T16:10:58.888Z,2.03
2023-01-20T16:13:26.036Z,1.98
2023-01-20T16:15:53.239Z,1.79
2023-01-20T16:18:22.740Z,1.89
2023-01-20T16:21:15.361Z,1.90
2023-01-20T16:23:43.410Z,1.85
2023-01-20T16:26:24.442Z,1.93
2023-01-20T16:28:53.637Z,1.73
2023-01-20T16:31:21.834Z,1.90
2023-01-20T16:33:49.234Z,1.75
2023-01-20T16:36:21.218Z,1.83
2023-01-20T16:38:49.857Z,1.86
2023-01-20T16:41:28.052Z,1.68
2023-01-20T16:43:56.127Z,1.98
2023-01-20T16:46:27.490Z,2.13
2023-01-20T16:49:01.597Z,1.89
2023-01-20T16:51:30.191Z,2.27
2023-01-20T16:53:58.321Z,2.20
2023-01-20T16:56:30.122Z,2.02
2023-01-20T16:59:03.189Z,2.11
2023-01-20T17:01:30.831Z,1.90
2023-01-20T17:04:00.477Z,1.93
2023-01-20T17:06:34.064Z,1.83
2023-01-20T17:09:03.801Z,1.85
2023-01-20T17:11:36.209Z,1.79
2023-01-20T17:14:07.749Z,1.65
2023-01-20T17:16:39.086Z,1.73
2023-01-20T17:19:06.663Z,1.98
2023-01-20T17:21:38.062Z,1.71
2023-01-20T17:24:07.794Z,1.81
2023-01-20T17:26:37.904Z,1.79
2023-01-20T17:29:08.669Z,1.83
2023-01-20T17:31:37.024Z,1.78
2023-01-20T17:34:05.508Z,1.93
2023-01-20T17:36:36.276Z,1.71
2023-01-20T17:39:06.744Z,1.90
2023-01-20T17:41:34.461Z,1.75
2023-01-20T17:44:05.434Z,1.75
2023-01-20T17:46:32.701Z,1.59
2023-01-20T17:49:01.689Z,1.71
2023-01-20T17:51:32.266Z,1.65
2023-01-20T17:54:02.555Z,1.76
2023-01-20T17:56:31.009Z,1.99
2023-01-20T17:59:00.543Z,1.73
2023-01-20T18:01:30.286Z,1.83
2023-01-20T18:04:00.882Z,1.59
2023-01-20T18:06:28.943Z,1.56
2023-01-20T18:08:58.792Z,1.72
2023-01-20T18:11:27.749Z,1.78
2023-01-20T18:13:58.816Z,1.83
2023-01-20T18:16:34.406Z,1.66
2023-01-20T18:19:04.346Z,1.59
2023-01-20T18:21:35.397Z,1.63
2023-01-20T18:24:04.984Z,1.76
2023-01-20T18:26:33.859Z,1.87
2023-01-20T18:29:04.998Z,2.02
2023-01-20T18:31:33.646Z,2.00
2023-01-20T18:34:05.493Z,1.78
2023-01-20T18:36:35.102Z,1.86
2023-01-20T18:39:05.933Z,1.89
2023-01-20T18:41:36.596Z,1.82
2023-01-20T18:44:07.468Z,1.87
2023-01-20T18:46:37.164Z,1.98
2023-01-20T18:49:05.808Z,1.76
2023-01-20T18:51:34.723Z,1.87
2023-01-20T18:54:05.883Z,2.00
2023-01-20T18:56:34.129Z,2.00
2023-01-20T18:59:01.738Z,1.89
2023-01-20T19:01:33.873Z,1.76
2023-01-20T19:04:04.697Z,1.72
2023-01-20T19:06:35.759Z,1.85
2023-01-20T19:09:04.537Z,1.79
2023-01-20T19:11:36.183Z,1.66
2023-01-20T19:14:03.908Z,1.55
2023-01-20T19:16:33.279Z,1.61
2023-01-20T19:19:02.435Z,1.56
2023-01-20T19:21:33.201Z,1.63
2023-01-20T19:24:05.813Z,1.52
2023-01-20T19:26:39.012Z,1.42
2023-01-20T19:29:08.566Z,1.41
2023-01-20T19:31:38.456Z,1.42
2023-01-20T19:34:07.462Z,1.59
2023-01-20T19:36:35.494Z,1.78
2023-01-20T19:39:02.673Z,1.87
2023-01-20T19:41:35.920Z,1.81
2023-01-20T19:44:07.761Z,1.75
2023-01-20T19:46:39.028Z,1.72
2023-01-20T19:49:10.094Z,1.75
2023-01-20T19:51:42.014Z,1.92
2023-01-20T19:54:12.645Z,2.07
2023-01-20T19:56:40.106Z,2.09
2023-01-20T19:59:11.754Z,2.21
2023-01-20T20:01:41.508Z,2.23
2023-01-20T20:04:12.812Z,2.29
2023-01-20T20:06:48.493Z,2.20
2023-01-20T20:09:19.661Z,2.07
2023-01-20T20:11:48.053Z,2.27
2023-01-20T20:14:17.320Z,2.33
2023-01-20T20:16:44.800Z,2.20
2023-01-20T20:19:14.186Z,2.16
2023-01-20T20:21:43.557Z,2.17
2023-01-20T20:24:12.765Z,2.14
2023-01-20T20:26:40.417Z,2.21
2023-01-20T20:29:08.791Z,2.20
2023-01-20T20:31:40.394Z,2.27
2023-01-20T20:34:11.202Z,2.31
2023-01-20T20:36:41.641Z,2.24
2023-01-20T20:39:12.376Z,2.29
2023-01-20T20:41:39.501Z,2.27
2023-01-20T20:44:08.904Z,2.24
2023-01-20T20:46:38.325Z,2.27
2023-01-20T20:49:05.502Z,2.33
2023-01-20T20:51:34.287Z,2.26
2023-01-20T20:54:02.679Z,2.24
2023-01-20T20:56:33.008Z,2.26
2023-01-20T20:59:03.716Z,2.06
2023-01-20T21:01:34.267Z,2.09
2023-01-20T21:04:03.097Z,2.09
2023-01-20T21:06:32.868Z,2.02
2023-01-20T21:09:02.718Z,2.13
2023-01-20T21:11:32.119Z,1.87
2023-01-20T21:14:01.975Z,2.03
2023-01-20T21:16:29.323Z,2.19
2023-01-20T21:18:59.213Z,2.29
2023-01-20T21:21:28.974Z,2.17
2023-01-20T21:23:59.430Z,2.14
2023-01-20T21:26:30.259Z,2.33
2023-01-20T21:29:01.952Z,2.36
2023-01-20T21:31:32.096Z,2.23
2023-01-20T21:34:00.414Z,2.27
2023-01-20T21:36:31.765Z,2.37
2023-01-20T21:38:59.296Z,2.31
2023-01-20T21:41:26.548Z,2.29
2023-01-20T21:44:12.119Z,2.26
2023-01-20T21:46:40.656Z,1.93
2023-01-20T21:49:26.955Z,2.03
2023-01-20T21:52:13.761Z,2.07
2023-01-20T21:54:41.600Z,2.21
2023-01-20T21:57:09.065Z,2.16
2023-01-20T21:59:39.194Z,2.29
2023-01-20T22:02:07.845Z,2.19
2023-01-20T22:04:35.097Z,2.33
2023-01-20T22:07:02.237Z,2.38
2023-01-20T22:09:29.525Z,2.45
2023-01-20T22:11:56.663Z,2.40
2023-01-20T22:14:23.857Z,2.50
2023-01-20T22:16:50.964Z,2.41
2023-01-20T22:19:20.630Z,2.65
2023-01-20T22:21:47.761Z,2.51
2023-01-20T22:24:17.520Z,2.66
2023-01-20T22:26:50.271Z,2.45
2023-01-20T22:29:17.879Z,2.51
2023-01-20T22:31:46.569Z,2.42
2023-01-20T22:34:13.871Z,2.30
2023-01-20T22:36:43.357Z,2.51
2023-01-20T22:39:14.285Z,2.55
2023-01-20T22:41:43.941Z,2.58
2023-01-20T22:44:11.196Z,2.58
2023-01-20T22:46:38.453Z,2.37
2023-01-20T22:49:05.738Z,2.50
2023-01-20T22:51:32.963Z,2.44
2023-01-20T22:54:01.298Z,2.55
2023-01-20T22:56:31.329Z,2.42
2023-01-20T22:59:01.830Z,2.48
2023-01-20T23:01:32.406Z,2.52
2023-01-20T23:04:05.727Z,2.38
2023-01-20T23:06:38.070Z,2.36
2023-01-20T23:09:14.489Z,2.45
2023-01-20T23:11:42.317Z,2.40
2023-01-20T23:14:13.641Z,2.42
2023-01-20T23:16:44.055Z,2.47
2023-01-20T23:19:11.750Z,2.42
2023-01-20T23:21:38.972Z,2.44
2023-01-20T23:24:07.076Z,2.34
2023-01-20T23:26:34.371Z,2.34
2023-01-20T23:29:03.867Z,2.31
2023-01-20T23:31:35.336Z,2.45
2023-01-20T23:34:02.825Z,2.51
2023-01-20T23:36:29.974Z,2.30
2023-01-20T23:38:57.321Z,2.41
2023-01-20T23:41:25.244Z,2.41
2023-01-20T23:43:54.835Z,2.33
2023-01-20T23:46:22.131Z,2.42
2023-01-20T23:48:49.415Z,2.45
2023-01-20T23:51:18.738Z,2.13
2023-01-20T23:53:46.109Z,2.33
2023-01-20T23:56:21.731Z,2.27
2023-01-20T23:58:49.269Z,2.48
